Time;durP1;ratioP1;P1;durP2;ratioP2;P2;SDS_P1;SDS_P2;PMS_P1;PMS_P2;Temp;Humidity;BMP_temperature;BMP_pressure;BME280_temperature;BME280_humidity;BME280_pressure;Samples;Min_cycle;Max_cycle;Signal;HPM_P1;HPM_P2
2022/05/24 00:01:50;;;;;;;12.13;6.95;;;13.40;99.90;;;;;;7401464;19;20477;-62
2022/05/24 00:04:19;;;;;;;14.30;6.65;;;13.50;99.90;;;;;;7399843;19;20050;-62
2022/05/24 00:06:48;;;;;;;9.48;5.78;;;13.10;99.90;;;;;;7400701;19;20010;-61
2022/05/24 00:09:17;;;;;;;8.75;5.05;;;13.40;99.90;;;;;;7398419;19;20015;-62
2022/05/24 00:11:46;;;;;;;8.23;4.75;;;13.30;99.90;;;;;;7398100;19;20014;-62
2022/05/24 00:14:14;;;;;;;9.05;4.85;;;13.50;99.90;;;;;;7392542;19;20408;-61
2022/05/24 00:16:43;;;;;;;11.57;5.15;;;13.50;99.90;;;;;;7397499;19;20018;-62
2022/05/24 00:19:15;;;;;;;9.45;4.30;;;13.30;99.90;;;;;;7400350;19;20514;-61
2022/05/24 00:21:44;;;;;;;8.98;4.28;;;13.40;99.90;;;;;;7397447;19;20034;-62
2022/05/24 00:24:13;;;;;;;11.82;5.03;;;13.20;99.90;;;;;;7397633;19;20514;-61
2022/05/24 00:26:42;;;;;;;8.23;4.38;;;13.10;99.90;;;;;;7394146;19;20026;-62
2022/05/24 00:29:11;;;;;;;6.05;4.18;;;13.60;99.90;;;;;;7399512;19;20010;-62
2022/05/24 00:31:40;;;;;;;8.65;4.78;;;13.40;99.90;;;;;;7397526;19;20074;-61
2022/05/24 00:34:09;;;;;;;7.03;4.50;;;13.20;99.90;;;;;;7395753;19;20022;-61
2022/05/24 00:36:40;;;;;;;8.07;4.50;;;13.20;99.90;;;;;;7397661;19;20127;-62
2022/05/24 00:39:09;;;;;;;7.45;4.28;;;13.00;99.90;;;;;;7394795;19;20039;-62
2022/05/24 00:41:43;;;;;;;8.50;4.35;;;13.20;99.90;;;;;;7398288;19;20011;-61
2022/05/24 00:44:19;;;;;;;7.75;4.57;;;13.20;99.90;;;;;;7398175;19;20362;-62
2022/05/24 00:46:53;;;;;;;7.10;4.78;;;13.20;99.90;;;;;;7397098;19;20489;-63
2022/05/24 00:49:30;;;;;;;7.55;5.28;;;13.20;99.90;;;;;;7401748;19;20066;-62
2022/05/24 00:52:06;;;;;;;10.82;5.35;;;13.10;99.90;;;;;;7398906;19;20018;-62
2022/05/24 00:54:35;;;;;;;9.95;5.30;;;;;;;;;;7396181;19;20094;-62
2022/05/24 00:57:12;;;;;;;7.93;5.15;;;13.20;99.90;;;;;;7396490;19;20042;-62
2022/05/24 00:59:45;;;;;;;11.25;5.65;;;12.90;99.90;;;;;;7399271;19;20006;-62
2022/05/24 01:02:14;;;;;;;12.02;6.70;;;13.30;99.90;;;;;;7398849;19;20031;-62
2022/05/24 01:04:44;;;;;;;11.70;6.53;;;13.10;99.90;;;;;;7395047;19;20090;-62
2022/05/24 01:07:15;;;;;;;12.38;7.10;;;13.10;99.90;;;;;;7396378;19;20485;-62
2022/05/24 01:09:48;;;;;;;11.57;7.30;;;13.00;99.90;;;;;;7396900;19;20332;-62
2022/05/24 01:12:22;;;;;;;12.57;7.50;;;13.00;99.90;;;;;;7394963;19;20414;-61
2022/05/24 01:14:53;;;;;;;13.88;7.68;;;13.00;99.90;;;;;;7395016;19;20018;-62
2022/05/24 01:17:22;;;;;;;11.30;7.90;;;12.90;99.90;;;;;;7398275;19;20039;-61
2022/05/24 01:19:51;;;;;;;13.73;7.07;;;12.90;99.90;;;;;;7398691;19;20473;-62
2022/05/24 01:22:47;;;;;;;11.82;7.38;;;12.90;99.90;;;;;;7394647;19;20018;-62
2022/05/24 01:25:23;;;;;;;11.17;6.93;;;12.80;99.90;;;;;;7392994;19;20019;-62
2022/05/24 01:27:55;;;;;;;9.18;7.30;;;12.80;99.90;;;;;;7394105;19;20294;-61
2022/05/24 01:30:24;;;;;;;10.18;6.68;;;;;;;;;;7397285;19;20488;-61
2022/05/24 01:38:24;;;;;;;10.25;6.47;;;12.50;99.90;;;;;;7395933;19;20015;-62
2022/05/24 01:40:55;;;;;;;10.45;6.00;;;12.70;99.90;;;;;;7397674;19;20030;-62
2022/05/24 01:43:29;;;;;;;8.45;5.95;;;12.60;99.90;;;;;;7395062;19;20018;-62
2022/05/24 01:46:02;;;;;;;10.20;5.65;;;12.90;99.90;;;;;;7394315;19;20517;-62
2022/05/24 01:48:39;;;;;;;9.98;6.70;;;12.60;99.90;;;;;;7396272;19;20035;-62
2022/05/24 01:51:12;;;;;;;10.52;6.35;;;12.90;99.90;;;;;;7395006;19;20021;-62
2022/05/24 01:53:45;;;;;;;10.73;7.18;;;12.60;99.90;;;;;;7396737;19;20011;-62
2022/05/24 01:56:18;;;;;;;10.93;6.70;;;12.80;99.90;;;;;;7395610;19;20030;-63
2022/05/24 01:58:53;;;;;;;11.60;6.78;;;12.40;99.90;;;;;;7396289;19;20054;-62
2022/05/24 02:01:29;;;;;;;11.90;6.85;;;12.40;99.90;;;;;;7394493;19;20327;-61
2022/05/24 02:03:58;;;;;;;12.07;7.22;;;12.40;99.90;;;;;;7393758;19;20334;-62
2022/05/24 02:06:30;;;;;;;11.02;7.20;;;12.40;99.90;;;;;;7396469;19;20418;-62
2022/05/24 02:08:59;;;;;;;13.00;6.70;;;12.40;99.90;;;;;;7391544;19;20529;-62
2022/05/24 02:11:31;;;;;;;12.82;7.65;;;12.40;99.90;;;;;;7397505;19;20031;-62
2022/05/24 02:14:08;;;;;;;10.13;6.97;;;12.40;99.90;;;;;;7394204;19;20014;-62
2022/05/24 02:16:41;;;;;;;9.55;6.45;;;12.20;99.90;;;;;;7395215;19;20029;-63
2022/05/24 02:19:11;;;;;;;9.68;7.00;;;12.50;99.90;;;;;;7393847;19;20112;-62
2022/05/24 02:21:43;;;;;;;12.10;7.45;;;12.30;99.90;;;;;;7393522;19;20034;-62
2022/05/24 02:24:21;;;;;;;11.38;6.63;;;12.40;99.90;;;;;;7394097;19;20022;-62
2022/05/24 02:26:50;;;;;;;11.98;6.80;;;12.30;99.90;;;;;;7395168;19;20365;-61
2022/05/24 02:29:24;;;;;;;10.90;6.72;;;12.30;99.90;;;;;;7392195;19;20010;-62
2022/05/24 02:31:54;;;;;;;11.05;6.30;;;12.40;99.90;;;;;;7396111;19;20082;-62
2022/05/24 02:34:23;;;;;;;10.80;6.07;;;12.40;99.90;;;;;;7391206;19;20028;-62
2022/05/24 02:36:52;;;;;;;11.45;6.70;;;;;;;;;;7396980;19;20014;-63
2022/05/24 02:39:21;;;;;;;11.18;6.57;;;11.90;99.90;;;;;;7392539;19;20018;-62
2022/05/24 02:41:47;;;;;;;12.00;6.25;;;12.20;99.90;;;;;;7395712;19;20394;-62
2022/05/24 02:44:18;;;;;;;9.45;6.47;;;12.40;99.90;;;;;;7391813;19;20010;-62
2022/05/24 02:46:50;;;;;;;10.82;6.38;;;12.20;99.90;;;;;;7392965;19;20034;-62
2022/05/24 02:49:19;;;;;;;11.13;6.63;;;12.10;99.90;;;;;;7392848;19;20007;-61
2022/05/24 02:51:48;;;;;;;9.70;6.72;;;12.20;99.90;;;;;;7394425;19;20018;-62
2022/05/24 02:54:19;;;;;;;10.77;6.45;;;12.10;99.90;;;;;;7394862;19;20075;-62
2022/05/24 02:56:48;;;;;;;13.05;7.05;;;12.20;99.90;;;;;;7394494;19;20026;-62
2022/05/24 02:59:17;;;;;;;9.38;6.15;;;12.20;99.90;;;;;;7392253;19;20011;-62
2022/05/24 03:01:46;;;;;;;10.95;6.93;;;12.40;99.90;;;;;;7394329;19;20307;-62
2022/05/24 03:04:18;;;;;;;11.70;6.00;;;12.20;99.90;;;;;;7394334;19;20516;-62
2022/05/24 03:09:37;;;;;;;14.63;7.57;;;12.50;99.90;;;;;;7392778;19;20010;-61
2022/05/24 03:14:52;;;;;;;11.40;7.60;;;12.10;99.90;;;;;;7394945;19;20018;-62
2022/05/24 03:17:21;;;;;;;11.48;7.53;;;12.30;99.90;;;;;;7399360;19;20039;-62
2022/05/24 03:19:53;;;;;;;11.10;7.72;;;12.20;99.90;;;;;;7397871;19;20025;-62
2022/05/24 03:22:22;;;;;;;13.20;7.72;;;11.80;99.90;;;;;;7399470;19;20014;-62
2022/05/24 03:24:52;;;;;;;12.60;8.07;;;12.10;99.90;;;;;;7400457;19;20014;-62
2022/05/24 03:27:21;;;;;;;13.73;9.15;;;12.10;99.90;;;;;;7403295;19;20018;-62
2022/05/24 03:29:50;;;;;;;16.88;8.88;;;12.20;99.90;;;;;;7399857;19;20031;-62
2022/05/24 03:32:21;;;;;;;15.07;10.05;;;12.30;99.90;;;;;;7402186;19;20021;-62
2022/05/24 03:34:52;;;;;;;15.30;9.55;;;12.40;99.90;;;;;;7399137;19;20171;-62
2022/05/24 03:37:21;;;;;;;17.67;11.20;;;12.30;99.90;;;;;;7399702;19;20050;-62
2022/05/24 03:39:50;;;;;;;19.75;11.85;;;12.30;99.90;;;;;;7395274;19;20014;-62
2022/05/24 03:42:19;;;;;;;19.33;11.63;;;;;;;;;;7399581;19;20010;-62
2022/05/24 03:44:48;;;;;;;19.33;12.73;;;12.40;99.90;;;;;;7399597;19;20086;-62
2022/05/24 03:47:17;;;;;;;23.50;14.43;;;12.40;99.90;;;;;;7399442;19;20014;-62
2022/05/24 03:49:46;;;;;;;22.02;13.77;;;12.40;99.90;;;;;;7400280;19;20018;-62
2022/05/24 03:52:17;;;;;;;22.65;14.38;;;12.40;99.90;;;;;;7400301;19;20346;-62
2022/05/24 03:54:47;;;;;;;25.00;14.73;;;12.50;99.90;;;;;;7397974;19;20482;-62
2022/05/24 03:59:57;;;;;;;25.77;15.50;;;12.50;99.90;;;;;;7396064;19;20018;-62
2022/05/24 04:02:26;;;;;;;29.48;16.30;;;12.40;99.90;;;;;;7397451;19;20022;-62
2022/05/24 04:04:55;;;;;;;26.10;16.25;;;12.40;99.90;;;;;;7396650;19;20026;-62
2022/05/24 04:07:27;;;;;;;28.60;16.13;;;12.50;99.90;;;;;;7397842;19;20477;-62
2022/05/24 04:09:56;;;;;;;31.13;16.88;;;12.50;99.90;;;;;;7398642;19;20023;-62
2022/05/24 04:12:25;;;;;;;27.92;17.70;;;12.70;99.90;;;;;;7396198;19;20015;-62
2022/05/24 04:14:53;;;;;;;31.67;17.85;;;12.60;99.90;;;;;;7392801;19;20360;-62
2022/05/24 04:17:22;;;;;;;29.65;17.00;;;12.50;99.90;;;;;;7397820;19;20433;-62
2022/05/24 04:19:51;;;;;;;30.92;17.98;;;12.60;99.90;;;;;;7398668;19;20018;-62
2022/05/24 04:22:20;;;;;;;32.92;18.42;;;12.50;99.90;;;;;;7399931;19;20042;-62
2022/05/24 04:24:52;;;;;;;30.90;18.88;;;12.70;99.90;;;;;;7397061;19;20035;-62
2022/05/24 04:27:20;;;;;;;30.95;18.92;;;12.80;99.90;;;;;;7392584;19;20010;-62
2022/05/24 04:29:51;;;;;;;30.73;18.45;;;12.80;99.90;;;;;;7394802;19;20082;-62
2022/05/24 04:32:20;;;;;;;34.20;19.05;;;12.80;99.90;;;;;;7401594;19;20029;-62
2022/05/24 04:34:50;;;;;;;32.42;19.38;;;;;;;;;;7397991;19;20029;-62
2022/05/24 04:37:19;;;;;;;32.85;18.75;;;12.80;99.90;;;;;;7397148;19;20093;-62
2022/05/24 04:39:51;;;;;;;31.58;19.25;;;12.80;99.90;;;;;;7398172;19;20014;-62
2022/05/24 04:42:21;;;;;;;31.98;18.63;;;12.80;99.90;;;;;;7399371;19;20019;-62
2022/05/24 04:44:53;;;;;;;30.92;19.98;;;12.80;99.90;;;;;;7399848;19;20014;-62
2022/05/24 04:47:25;;;;;;;34.85;19.08;;;12.80;99.90;;;;;;7398715;19;20019;-62
2022/05/24 04:49:56;;;;;;;32.95;19.75;;;12.80;99.90;;;;;;7397042;19;20074;-62
2022/05/24 04:52:27;;;;;;;30.92;19.27;;;12.90;99.90;;;;;;7399672;19;20014;-62
2022/05/24 04:55:00;;;;;;;31.45;20.00;;;12.90;99.90;;;;;;7395469;19;20573;-62
2022/05/24 04:57:29;;;;;;;29.40;19.00;;;12.90;99.90;;;;;;7395453;19;20007;-62
2022/05/24 04:59:58;;;;;;;32.95;18.85;;;13.10;99.90;;;;;;7394648;19;20013;-62
2022/05/24 05:02:27;;;;;;;32.20;19.20;;;12.90;99.90;;;;;;7398897;19;20015;-62
2022/05/24 05:04:56;;;;;;;27.20;18.38;;;12.90;99.90;;;;;;7399698;19;20580;-62
2022/05/24 05:07:25;;;;;;;30.08;18.35;;;13.00;99.90;;;;;;7395865;19;20014;-62
2022/05/24 05:09:54;;;;;;;27.92;18.05;;;13.10;99.90;;;;;;7396272;19;20074;-62
2022/05/24 05:12:26;;;;;;;29.35;17.20;;;13.10;99.90;;;;;;7396260;19;20541;-62
2022/05/24 05:14:55;;;;;;;26.13;17.98;;;13.20;99.90;;;;;;7399308;19;20018;-62
2022/05/24 05:17:24;;;;;;;28.73;17.38;;;13.10;99.90;;;;;;7397135;19;20495;-62
2022/05/24 05:19:54;;;;;;;26.92;17.25;;;13.10;99.90;;;;;;7394527;19;20544;-62
2022/05/24 05:22:24;;;;;;;27.63;16.52;;;13.10;99.90;;;;;;7395511;19;20050;-62
2022/05/24 05:24:53;;;;;;;27.10;16.80;;;13.10;99.90;;;;;;7397015;19;20011;-62
2022/05/24 05:27:22;;;;;;;25.50;16.23;;;13.10;99.90;;;;;;7398101;19;20077;-62
2022/05/24 05:32:35;;;;;;;24.65;15.68;;;13.20;99.90;;;;;;7397455;19;20034;-62
2022/05/24 05:35:07;;;;;;;26.88;14.45;;;13.30;99.90;;;;;;7396828;19;20014;-62
2022/05/24 05:37:36;;;;;;;24.98;15.13;;;13.10;99.90;;;;;;7397475;19;20740;-62
2022/05/24 05:40:07;;;;;;;24.60;14.98;;;13.20;99.90;;;;;;7390987;19;20014;-62
2022/05/24 05:42:38;;;;;;;26.08;14.63;;;;;;;;;;7397221;19;20015;-62
2022/05/24 05:45:11;;;;;;;26.38;15.40;;;13.40;99.90;;;;;;7395648;19;20473;-62
2022/05/24 05:47:40;;;;;;;22.23;14.57;;;13.10;99.90;;;;;;7396783;19;20018;-62
2022/05/24 05:50:11;;;;;;;22.50;15.45;;;13.00;99.90;;;;;;7395925;19;20519;-62
2022/05/24 05:52:40;;;;;;;24.23;15.30;;;13.20;99.90;;;;;;7395949;19;20014;-62
2022/05/24 05:55:11;;;;;;;27.70;16.08;;;13.20;99.90;;;;;;7395685;19;20014;-63
2022/05/24 05:57:40;;;;;;;24.02;15.40;;;13.30;99.90;;;;;;7395958;19;20018;-63
2022/05/24 06:00:12;;;;;;;26.00;15.48;;;13.20;99.90;;;;;;7395250;19;20031;-62
2022/05/24 06:02:41;;;;;;;30.08;16.17;;;13.30;99.90;;;;;;7396379;19;20022;-62
2022/05/24 06:05:11;;;;;;;25.38;15.88;;;13.00;99.90;;;;;;7396111;19;20071;-63
2022/05/24 06:07:40;;;;;;;29.15;18.13;;;13.10;99.90;;;;;;7396789;19;20020;-62
2022/05/24 06:10:12;;;;;;;26.67;17.02;;;13.10;99.90;;;;;;7394148;19;20514;-62
2022/05/24 06:12:41;;;;;;;33.58;19.02;;;;;;;;;;7393997;19;20019;-62
2022/05/24 06:15:13;;;;;;;32.45;19.63;;;13.20;99.90;;;;;;7391196;19;20026;-63
2022/05/24 06:17:46;;;;;;;32.70;18.63;;;13.20;99.90;;;;;;7390958;19;20361;-63
2022/05/24 06:20:16;;;;;;;33.63;18.48;;;13.00;99.90;;;;;;7392460;19;20018;-63
2022/05/24 06:22:45;;;;;;;31.63;19.13;;;13.40;99.90;;;;;;7394542;19;20343;-62
2022/05/24 06:25:13;;;;;;;30.98;19.77;;;13.20;99.90;;;;;;7390628;19;20007;-62
2022/05/24 06:27:43;;;;;;;36.13;20.13;;;13.30;99.90;;;;;;7391561;19;20010;-62
2022/05/24 06:30:15;;;;;;;36.55;19.50;;;13.30;99.90;;;;;;7395947;19;20019;-62
2022/05/24 06:32:44;;;;;;;31.90;19.58;;;13.30;99.90;;;;;;7392786;19;20030;-62
2022/05/24 06:35:13;;;;;;;31.48;18.08;;;13.20;99.90;;;;;;7395646;19;20503;-62
2022/05/24 06:37:43;;;;;;;35.42;19.50;;;13.30;99.90;;;;;;7395367;19;20015;-62
2022/05/24 06:40:15;;;;;;;34.35;18.77;;;13.10;99.90;;;;;;7393083;19;20045;-62
2022/05/24 06:42:44;;;;;;;29.27;17.45;;;13.30;99.90;;;;;;7394398;19;20014;-62
2022/05/24 06:45:16;;;;;;;28.35;16.10;;;13.50;99.90;;;;;;7392352;19;20011;-62
2022/05/24 06:47:45;;;;;;;25.55;15.63;;;13.40;99.90;;;;;;7394000;19;20034;-62
2022/05/24 06:50:15;;;;;;;24.98;16.13;;;13.40;99.90;;;;;;7395014;19;20075;-62
2022/05/24 06:52:45;;;;;;;25.02;16.88;;;13.40;99.90;;;;;;7396552;19;20018;-62
2022/05/24 06:55:16;;;;;;;29.17;16.25;;;13.30;99.90;;;;;;7395223;19;20044;-62
2022/05/24 06:57:45;;;;;;;27.73;16.08;;;13.40;99.90;;;;;;7402601;19;20011;-63
2022/05/24 07:03:03;;;;;;;25.30;15.02;;;13.40;99.90;;;;;;7401794;19;20085;-62
2022/05/24 07:05:32;;;;;;;26.33;14.38;;;13.40;99.90;;;;;;7403021;19;20010;-63
2022/05/24 07:08:02;;;;;;;23.83;13.27;;;13.30;99.90;;;;;;7400097;19;20007;-63
2022/05/24 07:10:32;;;;;;;20.85;13.88;;;13.30;99.90;;;;;;7400960;19;20022;-62
2022/05/24 07:13:03;;;;;;;21.42;13.25;;;13.40;99.90;;;;;;7395538;19;20018;-62
2022/05/24 07:15:35;;;;;;;22.42;13.57;;;13.40;99.90;;;;;;7400557;19;20017;-62
2022/05/24 07:18:04;;;;;;;23.77;13.45;;;13.30;99.90;;;;;;7401354;19;20046;-62
2022/05/24 07:20:36;;;;;;;20.55;12.98;;;13.20;99.90;;;;;;7396598;19;20458;-62
2022/05/24 07:23:11;;;;;;;21.50;12.10;;;13.20;99.90;;;;;;7400080;19;20015;-62
2022/05/24 07:25:41;;;;;;;23.52;12.85;;;13.10;99.90;;;;;;7399813;19;20492;-62
2022/05/24 07:28:10;;;;;;;23.10;13.27;;;13.20;99.90;;;;;;7398801;19;20014;-62
2022/05/24 07:30:42;;;;;;;25.90;14.25;;;13.00;99.90;;;;;;7401434;19;20044;-62
2022/05/24 07:33:12;;;;;;;25.15;13.68;;;13.10;99.90;;;;;;7399308;19;20014;-62
2022/05/24 07:35:42;;;;;;;24.65;13.52;;;13.00;99.90;;;;;;7399211;19;20036;-62
2022/05/24 07:38:12;;;;;;;23.17;13.73;;;13.00;99.90;;;;;;7399489;19;20030;-62
2022/05/24 07:46:11;;;;;;;21.25;13.15;;;13.00;99.90;;;;;;7402148;19;20469;-62
2022/05/24 07:48:40;;;;;;;23.27;13.23;;;13.10;99.90;;;;;;7399462;19;20011;-62
2022/05/24 07:51:09;;;;;;;23.63;13.20;;;13.20;99.90;;;;;;7398389;19;20086;-62
2022/05/24 07:53:39;;;;;;;20.25;12.50;;;13.20;99.90;;;;;;7399967;19;20018;-63
2022/05/24 07:56:09;;;;;;;22.25;12.50;;;13.20;99.90;;;;;;7398023;19;20038;-62
2022/05/24 07:58:38;;;;;;;21.73;13.32;;;13.30;99.90;;;;;;7400425;19;20353;-62
2022/05/24 08:01:10;;;;;;;20.88;13.40;;;13.40;99.90;;;;;;7392570;19;20115;-62
2022/05/24 08:03:39;;;;;;;20.65;13.15;;;13.30;99.90;;;;;;7396905;19;20094;-62
2022/05/24 08:06:09;;;;;;;23.35;13.23;;;13.60;99.90;;;;;;7398527;19;20044;-62
2022/05/24 08:08:37;;;;;;;22.27;13.13;;;13.40;99.90;;;;;;7396119;19;20007;-62
2022/05/24 08:11:08;;;;;;;20.90;12.25;;;13.50;99.90;;;;;;7396028;19;20304;-62
2022/05/24 08:13:37;;;;;;;23.10;13.88;;;13.60;99.90;;;;;;7399022;19;20496;-62
2022/05/24 08:16:09;;;;;;;19.17;12.82;;;13.50;99.90;;;;;;7401275;19;20007;-62
2022/05/24 08:18:38;;;;;;;20.00;11.68;;;13.50;99.90;;;;;;7398239;19;20046;-62
2022/05/24 08:21:07;;;;;;;21.25;12.63;;;13.40;99.90;;;;;;7398841;19;20082;-62
2022/05/24 08:23:37;;;;;;;19.52;12.40;;;;;;;;;;7397512;19;20026;-62
2022/05/24 08:26:06;;;;;;;22.85;13.27;;;13.40;99.90;;;;;;7396964;19;20018;-62
2022/05/24 08:28:35;;;;;;;23.73;11.75;;;13.40;99.90;;;;;;7396900;19;20370;-62
2022/05/24 08:31:04;;;;;;;24.83;11.73;;;;;;;;;;7400651;19;20018;-62
2022/05/24 08:33:35;;;;;;;21.15;11.90;;;13.30;99.90;;;;;;7397368;19;20077;-62
2022/05/24 08:36:05;;;;;;;17.48;9.95;;;13.30;99.90;;;;;;7395110;19;20013;-63
2022/05/24 08:38:34;;;;;;;19.17;10.98;;;13.20;99.90;;;;;;7398926;19;20117;-62
2022/05/24 08:41:06;;;;;;;17.73;11.65;;;13.30;99.90;;;;;;7398797;19;20343;-62
2022/05/24 08:43:58;;;;;;;19.13;11.15;;;13.30;99.90;;;;;;7397147;19;20090;-62
2022/05/24 08:49:21;;;;;;;17.17;11.35;;;13.50;99.90;;;;;;7399950;19;20014;-62
2022/05/24 08:51:55;;;;;;;21.65;11.75;;;13.70;99.90;;;;;;7396068;19;20038;-62
2022/05/24 08:54:28;;;;;;;20.35;11.15;;;13.50;99.90;;;;;;7396459;19;20018;-62
2022/05/24 08:57:00;;;;;;;21.48;11.65;;;13.60;99.90;;;;;;7397912;19;20355;-62
2022/05/24 08:59:32;;;;;;;17.63;10.93;;;13.70;99.90;;;;;;7395882;19;20022;-62
2022/05/24 09:02:01;;;;;;;20.60;10.68;;;13.70;99.90;;;;;;7395421;19;20029;-62
2022/05/24 09:04:33;;;;;;;14.75;10.70;;;13.70;99.90;;;;;;7398505;19;20018;-62
2022/05/24 09:07:09;;;;;;;17.50;10.18;;;13.80;99.90;;;;;;7396276;19;20022;-62
2022/05/24 09:09:53;;;;;;;15.23;10.60;;;13.90;99.90;;;;;;7395075;19;20015;-62
2022/05/24 09:12:32;;;;;;;19.00;9.93;;;13.90;99.90;;;;;;7400228;19;20031;-62
2022/05/24 09:15:17;;;;;;;17.92;10.45;;;13.90;99.90;;;;;;7394863;19;20307;-62
2022/05/24 09:17:55;;;;;;;17.13;10.15;;;14.00;99.90;;;;;;7398531;19;20024;-63
2022/05/24 09:20:35;;;;;;;16.90;10.35;;;14.10;99.90;;;;;;7395001;19;20496;-62
2022/05/24 09:23:10;;;;;;;14.82;9.00;;;14.20;99.90;;;;;;7395791;19;20006;-62
2022/05/24 09:25:39;;;;;;;17.97;9.13;;;14.40;99.90;;;;;;7397009;19;20021;-62
2022/05/24 09:28:08;;;;;;;15.27;9.07;;;14.40;99.90;;;;;;7397123;19;20043;-62
2022/05/24 09:30:45;;;;;;;15.02;9.32;;;14.40;99.90;;;;;;7395442;19;20015;-62
2022/05/24 09:33:25;;;;;;;13.52;8.93;;;14.20;99.90;;;;;;7393909;19;20355;-62
2022/05/24 09:36:02;;;;;;;13.77;8.73;;;14.40;99.90;;;;;;7394698;19;20007;-63
2022/05/24 09:38:36;;;;;;;13.52;8.70;;;14.50;99.90;;;;;;7395837;19;20034;-62
2022/05/24 09:41:16;;;;;;;13.07;8.00;;;14.50;99.90;;;;;;7394293;19;20030;-62
2022/05/24 09:43:47;;;;;;;13.25;8.35;;;14.60;99.90;;;;;;7395720;19;20029;-62
2022/05/24 09:46:28;;;;;;;12.90;7.75;;;14.50;99.90;;;;;;7397238;19;20015;-62
2022/05/24 09:48:59;;;;;;;14.48;8.52;;;14.80;99.90;;;;;;7396735;19;20022;-62
2022/05/24 09:51:38;;;;;;;12.77;8.38;;;14.80;99.90;;;;;;7393129;19;20062;-62
2022/05/24 09:54:13;;;;;;;12.13;7.60;;;15.00;99.90;;;;;;7396877;19;20011;-62
2022/05/24 09:56:43;;;;;;;14.60;8.23;;;15.10;99.90;;;;;;7394554;19;20002;-62
2022/05/24 09:59:26;;;;;;;15.88;8.70;;;15.10;99.90;;;;;;7394524;19;20010;-62
2022/05/24 10:01:55;;;;;;;10.40;6.75;;;15.00;99.90;;;;;;7394548;19;20035;-62
2022/05/24 10:04:28;;;;;;;9.02;6.00;;;14.80;99.90;;;;;;7394981;19;20351;-62
2022/05/24 10:07:03;;;;;;;8.90;6.10;;;14.90;99.90;;;;;;7394304;19;20025;-62
2022/05/24 10:09:51;;;;;;;12.90;6.57;;;14.70;99.90;;;;;;7396188;19;20025;-62
2022/05/24 10:12:30;;;;;;;10.32;6.60;;;14.60;99.90;;;;;;7394327;19;20022;-62
2022/05/24 10:15:06;;;;;;;11.00;6.15;;;14.80;99.90;;;;;;7390063;19;20058;-62
2022/05/24 10:17:44;;;;;;;8.38;6.00;;;14.90;99.90;;;;;;7391031;19;20025;-62
2022/05/24 10:20:20;;;;;;;10.60;5.70;;;14.70;99.90;;;;;;7396350;19;20010;-62
2022/05/24 10:23:01;;;;;;;7.95;5.35;;;14.90;99.90;;;;;;7395438;19;20457;-63
2022/05/24 10:25:37;;;;;;;4.95;2.65;;;14.60;99.90;;;;;;7396302;19;20031;-63
2022/05/24 10:28:20;;;;;;;2.17;1.75;;;14.00;99.90;;;;;;7392903;19;20010;-63
2022/05/24 10:30:58;;;;;;;2.83;1.60;;;13.70;99.90;;;;;;7393566;19;20015;-63
2022/05/24 10:39:21;;;;;;;4.85;2.40;;;13.20;99.90;;;;;;7393754;19;20378;-63
2022/05/24 10:41:59;;;;;;;3.65;2.35;;;13.00;99.90;;;;;;7393657;19;20018;-63
2022/05/24 10:44:45;;;;;;;6.35;2.60;;;13.10;99.90;;;;;;7395634;19;20042;-63
2022/05/24 10:47:25;;;;;;;5.28;2.88;;;13.30;99.90;;;;;;7390799;19;20027;-63
2022/05/24 10:50:01;;;;;;;4.63;2.83;;;13.50;99.90;;;;;;7386422;19;20018;-65
2022/05/24 10:52:37;;;;;;;6.05;3.83;;;13.90;99.90;;;;;;7395161;19;20018;-63
2022/05/24 10:55:12;;;;;;;7.72;3.28;;;14.10;99.90;;;;;;7392851;19;20028;-63
2022/05/24 10:57:46;;;;;;;5.93;3.80;;;14.10;99.90;;;;;;7393826;19;20035;-64
2022/05/24 11:00:18;;;;;;;6.75;3.88;;;14.30;99.90;;;;;;7394700;19;20038;-63
2022/05/24 11:02:55;;;;;;;6.57;3.95;;;14.20;99.90;;;;;;7388591;19;20026;-63
2022/05/24 11:05:29;;;;;;;9.27;3.90;;;14.20;99.90;;;;;;7394823;19;20018;-63
2022/05/24 11:08:08;;;;;;;7.32;4.35;;;14.10;99.90;;;;;;7393292;19;20070;-63
2022/05/24 11:10:44;;;;;;;8.02;4.75;;;13.90;99.90;;;;;;7390783;19;20343;-63
2022/05/24 11:13:15;;;;;;;6.53;4.25;;;13.80;99.90;;;;;;7389095;19;20408;-62
2022/05/24 11:15:48;;;;;;;4.43;2.42;;;13.30;99.90;;;;;;7394238;19;20022;-63
2022/05/24 11:18:20;;;;;;;5.97;1.08;;;12.70;99.90;;;;;;7388949;19;20035;-63
2022/05/24 11:20:57;;;;;;;2.67;1.40;;;12.50;99.90;;;;;;7390671;19;20022;-63
2022/05/24 11:23:32;;;;;;;4.10;1.02;;;12.10;99.90;;;;;;7394710;19;20506;-64
2022/05/24 11:26:12;;;;;;;1.63;1.00;;;12.10;99.90;;;;;;7390139;19;20018;-63
2022/05/24 11:28:49;;;;;;;2.00;1.00;;;12.00;99.90;;;;;;7390278;19;20022;-64
2022/05/24 11:31:42;;;;;;;1.83;1.15;;;11.80;99.90;;;;;;7389349;19;20034;-62
2022/05/24 11:34:20;;;;;;;1.77;1.20;;;12.00;99.90;;;;;;7388250;19;20022;-62
2022/05/24 11:37:03;;;;;;;3.92;1.10;;;11.90;99.90;;;;;;7396732;19;20035;-62
2022/05/24 11:39:35;;;;;;;1.52;1.00;;;12.00;99.90;;;;;;7396616;19;20475;-61
2022/05/24 11:42:28;;;;;;;5.03;1.15;;;12.00;99.90;;;;;;7398048;19;20014;-62
2022/05/24 11:44:59;;;;;;;1.27;1.10;;;12.20;99.90;;;;;;7403003;19;20074;-61
2022/05/24 11:48:00;;;;;;;3.10;1.40;;;12.30;99.90;;;;;;7400734;19;20038;-62
2022/05/24 11:50:46;;;;;;;2.72;1.35;;;12.50;99.90;;;;;;7400522;19;20046;-61
2022/05/24 11:53:40;;;;;;;2.67;1.40;;;12.90;99.90;;;;;;7401150;19;20465;-62
2022/05/24 11:56:21;;;;;;;2.50;1.52;;;12.90;99.90;;;;;;7396903;19;20384;-62
2022/05/24 11:59:00;;;;;;;3.08;1.63;;;13.10;99.90;;;;;;7398831;19;20021;-61
2022/05/24 12:01:39;;;;;;;3.05;1.75;;;13.10;99.90;;;;;;7399485;19;20022;-61
2022/05/24 12:10:37;;;;;;;3.95;2.10;;;14.20;99.90;;;;;;7396627;19;20021;-62
2022/05/24 12:13:30;;;;;;;3.72;2.38;;;14.10;99.90;;;;;;7397058;19;20011;-62
2022/05/24 12:16:03;;;;;;;3.83;2.50;;;14.10;99.90;;;;;;7398340;19;20015;-61
2022/05/24 12:18:46;;;;;;;4.00;2.47;;;14.00;99.90;;;;;;7400801;19;20018;-62
2022/05/24 12:21:40;;;;;;;4.05;2.50;;;14.10;99.90;;;;;;7397156;19;20773;-62
2022/05/24 12:24:25;;;;;;;3.38;2.40;;;14.20;99.90;;;;;;7397059;19;20031;-62
2022/05/24 12:27:12;;;;;;;5.03;2.00;;;14.30;99.90;;;;;;7399567;19;20019;-62
2022/05/24 12:29:43;;;;;;;2.25;1.60;;;14.40;99.90;;;;;;7398123;19;20018;-62
2022/05/24 12:32:19;;;;;;;2.20;1.70;;;14.70;99.90;;;;;;7397951;19;20027;-62
2022/05/24 12:34:48;;;;;;;4.07;1.80;;;14.80;99.90;;;;;;7396813;19;20021;-62
2022/05/24 12:37:25;;;;;;;2.92;1.80;;;14.50;99.90;;;;;;7399339;19;20014;-62
2022/05/24 12:40:12;;;;;;;4.35;1.98;;;14.40;99.90;;;;;;7400257;19;20018;-61
2022/05/24 12:42:50;;;;;;;4.55;2.13;;;14.30;99.90;;;;;;7396124;19;20018;-62
2022/05/24 12:45:28;;;;;;;3.78;2.30;;;14.20;99.90;;;;;;7398569;19;20014;-61
2022/05/24 12:48:00;;;;;;;6.32;2.17;;;14.10;99.90;;;;;;7397043;19;20014;-62
2022/05/24 12:50:36;;;;;;;4.63;1.80;;;14.00;99.90;;;;;;7396807;19;20010;-62
2022/05/24 12:53:08;;;;;;;4.07;2.58;;;14.00;99.90;;;;;;7398549;19;20085;-62
2022/05/24 12:58:31;;;;;;;2.92;2.10;;;14.70;99.90;;;;;;7399156;19;20343;-62
2022/05/24 13:01:15;;;;;;;5.53;2.00;;;15.10;99.90;;;;;;7396628;19;20011;-62
2022/05/24 13:03:53;;;;;;;2.97;1.98;;;15.40;99.90;;;;;;7398444;19;20547;-62
2022/05/24 13:06:27;;;;;;;3.88;2.20;;;15.30;99.90;;;;;;7397930;19;20391;-61
2022/05/24 13:09:15;;;;;;;3.33;2.05;;;15.60;99.90;;;;;;7398346;19;20038;-62
2022/05/24 13:11:45;;;;;;;3.67;1.90;;;15.50;99.90;;;;;;7392203;19;20018;-62
2022/05/24 13:14:32;;;;;;;4.53;1.70;;;15.70;99.90;;;;;;7394736;19;20074;-62
2022/05/24 13:17:01;;;;;;;6.93;1.60;;;15.10;99.90;;;;;;7393832;19;20014;-68
2022/05/24 13:19:45;;;;;;;4.57;1.50;;;14.80;99.90;;;;;;7398031;19;20023;-63
2022/05/24 13:22:15;;;;;;;1.65;0.60;;;14.80;99.90;;;;;;7395483;19;20021;-63
2022/05/24 13:24:57;;;;;;;3.35;0.82;;;13.70;99.90;;;;;;7400393;19;20038;-63
2022/05/24 13:27:27;;;;;;;1.08;0.70;;;13.20;99.90;;;;;;7394580;19;20026;-62
2022/05/24 13:35:25;;;;;;;0.90;0.75;;;13.10;99.90;;;;;;7395611;19;20028;-62
2022/05/24 13:38:01;;;;;;;1.17;0.90;;;13.60;99.90;;;;;;7396152;19;20018;-62
2022/05/24 13:40:41;;;;;;;1.30;0.80;;;13.90;99.90;;;;;;7396223;19;20027;-64
2022/05/24 13:43:11;;;;;;;2.22;1.00;;;14.20;99.90;;;;;;7395722;19;20354;-63
2022/05/24 13:45:40;;;;;;;1.23;1.10;;;14.60;99.90;;;;;;7396386;19;20068;-64
2022/05/24 13:56:08;;;;;;;2.72;1.30;;;15.20;99.90;;;;;;7384386;19;20021;-63
2022/05/24 14:04:32;;;;;;;2.40;1.40;;;15.60;99.90;;;;;;7247262;19;3027946;-71
2022/05/24 14:07:04;;;;;;;3.58;1.10;;;15.30;99.90;;;;;;7430888;19;20401;-72
2022/05/24 14:09:34;;;;;;;4.15;1.25;;;15.40;99.90;;;;;;7429714;19;20041;-77